sensor_id;sensor_type;location;lat;lon;timestamp;temperature;humidity
46900;DHT22;32647;49.382;7.078;2022-07-23T00:00:50;20.40;99.90
46900;DHT22;32647;49.382;7.078;2022-07-23T00:03:36;20.40;99.90
46900;DHT22;32647;49.382;7.078;2022-07-23T00:06:23;20.50;99.90
46900;DHT22;32647;49.382;7.078;2022-07-23T00:09:09;20.30;1.00
46900;DHT22;32647;49.382;7.078;2022-07-23T00:11:55;20.30;1.00
46900;DHT22;32647;49.382;7.078;2022-07-23T00:14:41;20.50;1.00
46900;DHT22;32647;49.382;7.078;2022-07-23T00:17:27;20.20;23.90
46900;DHT22;32647;49.382;7.078;2022-07-23T00:20:13;19.90;57.50
46900;DHT22;32647;49.382;7.078;2022-07-23T00:22:59;19.80;58.20
46900;DHT22;32647;49.382;7.078;2022-07-23T00:25:45;19.70;45.80
46900;DHT22;32647;49.382;7.078;2022-07-23T00:28:31;19.80;61.20
46900;DHT22;32647;49.382;7.078;2022-07-23T00:31:18;19.90;35.80
46900;DHT22;32647;49.382;7.078;2022-07-23T00:34:04;19.90;57.10
46900;DHT22;32647;49.382;7.078;2022-07-23T00:36:50;20.10;58.90
46900;DHT22;32647;49.382;7.078;2022-07-23T00:39:36;20.00;67.30
46900;DHT22;32647;49.382;7.078;2022-07-23T00:42:22;19.80;74.80
46900;DHT22;32647;49.382;7.078;2022-07-23T00:45:08;19.80;85.50
46900;DHT22;32647;49.382;7.078;2022-07-23T00:47:54;19.80;49.30
46900;DHT22;32647;49.382;7.078;2022-07-23T00:50:40;19.80;51.60
46900;DHT22;32647;49.382;7.078;2022-07-23T00:53:27;19.90;43.80
46900;DHT22;32647;49.382;7.078;2022-07-23T00:56:16;19.80;40.40
46900;DHT22;32647;49.382;7.078;2022-07-23T00:59:02;19.70;55.50
46900;DHT22;32647;49.382;7.078;2022-07-23T01:01:48;19.60;79.80
46900;DHT22;32647;49.382;7.078;2022-07-23T01:04:34;19.50;97.90
46900;DHT22;32647;49.382;7.078;2022-07-23T01:07:20;19.60;99.90
46900;DHT22;32647;49.382;7.078;2022-07-23T01:10:07;19.50;99.90
46900;DHT22;32647;49.382;7.078;2022-07-23T01:13:13;19.40;99.90
46900;DHT22;32647;49.382;7.078;2022-07-23T01:15:59;19.30;99.90
46900;DHT22;32647;49.382;7.078;2022-07-23T01:18:45;19.30;99.90
46900;DHT22;32647;49.382;7.078;2022-07-23T01:21:32;19.30;99.90
46900;DHT22;32647;49.382;7.078;2022-07-23T01:24:19;19.10;99.90
46900;DHT22;32647;49.382;7.078;2022-07-23T01:27:05;18.90;99.90
46900;DHT22;32647;49.382;7.078;2022-07-23T01:29:51;19.00;99.90
46900;DHT22;32647;49.382;7.078;2022-07-23T01:32:38;19.10;99.90
46900;DHT22;32647;49.382;7.078;2022-07-23T01:35:24;19.10;99.90
46900;DHT22;32647;49.382;7.078;2022-07-23T01:38:10;19.20;99.90
46900;DHT22;32647;49.382;7.078;2022-07-23T01:40:56;19.10;99.90
46900;DHT22;32647;49.382;7.078;2022-07-23T01:43:42;18.80;99.90
46900;DHT22;32647;49.382;7.078;2022-07-23T01:46:28;18.70;99.90
46900;DHT22;32647;49.382;7.078;2022-07-23T01:49:14;18.60;99.90
46900;DHT22;32647;49.382;7.078;2022-07-23T01:52:00;18.50;99.90
46900;DHT22;32647;49.382;7.078;2022-07-23T01:54:46;18.50;99.90
46900;DHT22;32647;49.382;7.078;2022-07-23T01:57:33;18.70;99.90
46900;DHT22;32647;49.382;7.078;2022-07-23T02:00:19;18.70;99.90
46900;DHT22;32647;49.382;7.078;2022-07-23T02:03:05;18.80;99.90
46900;DHT22;32647;49.382;7.078;2022-07-23T02:05:51;18.80;99.90
46900;DHT22;32647;49.382;7.078;2022-07-23T02:08:37;18.70;99.90
46900;DHT22;32647;49.382;7.078;2022-07-23T02:11:23;18.80;99.90
46900;DHT22;32647;49.382;7.078;2022-07-23T02:14:09;18.80;99.90
46900;DHT22;32647;49.382;7.078;2022-07-23T02:16:55;18.90;99.90
46900;DHT22;32647;49.382;7.078;2022-07-23T02:19:41;19.00;99.90
46900;DHT22;32647;49.382;7.078;2022-07-23T02:22:27;19.10;99.90
46900;DHT22;32647;49.382;7.078;2022-07-23T02:25:14;19.10;99.90
46900;DHT22;32647;49.382;7.078;2022-07-23T02:28:00;19.10;99.90
46900;DHT22;32647;49.382;7.078;2022-07-23T02:30:46;19.00;99.90
46900;DHT22;32647;49.382;7.078;2022-07-23T02:33:32;19.10;99.90
46900;DHT22;32647;49.382;7.078;2022-07-23T02:36:18;19.20;99.90
46900;DHT22;32647;49.382;7.078;2022-07-23T02:39:04;19.00;99.90
46900;DHT22;32647;49.382;7.078;2022-07-23T02:41:50;19.00;99.90
46900;DHT22;32647;49.382;7.078;2022-07-23T02:44:36;19.00;99.90
46900;DHT22;32647;49.382;7.078;2022-07-23T02:47:22;18.90;99.90
46900;DHT22;32647;49.382;7.078;2022-07-23T02:50:08;18.80;99.90
46900;DHT22;32647;49.382;7.078;2022-07-23T02:52:54;18.60;99.90
46900;DHT22;32647;49.382;7.078;2022-07-23T02:55:40;18.60;99.90
46900;DHT22;32647;49.382;7.078;2022-07-23T02:58:26;18.50;99.90
46900;DHT22;32647;49.382;7.078;2022-07-23T03:01:12;18.40;99.90
46900;DHT22;32647;49.382;7.078;2022-07-23T03:03:58;18.50;99.90
46900;DHT22;32647;49.382;7.078;2022-07-23T03:06:44;18.70;99.90
46900;DHT22;32647;49.382;7.078;2022-07-23T03:09:30;18.70;99.90
46900;DHT22;32647;49.382;7.078;2022-07-23T03:12:16;18.70;99.90
46900;DHT22;32647;49.382;7.078;2022-07-23T03:15:03;18.80;99.90
46900;DHT22;32647;49.382;7.078;2022-07-23T03:17:49;19.00;99.90
46900;DHT22;32647;49.382;7.078;2022-07-23T03:20:35;19.00;99.90
46900;DHT22;32647;49.382;7.078;2022-07-23T03:23:21;18.70;99.90
46900;DHT22;32647;49.382;7.078;2022-07-23T03:26:07;18.60;99.90
46900;DHT22;32647;49.382;7.078;2022-07-23T03:28:53;18.60;99.90
46900;DHT22;32647;49.382;7.078;2022-07-23T03:31:39;18.60;99.90
46900;DHT22;32647;49.382;7.078;2022-07-23T03:34:25;18.50;99.90
46900;DHT22;32647;49.382;7.078;2022-07-23T03:37:11;18.60;99.90
46900;DHT22;32647;49.382;7.078;2022-07-23T03:39:57;18.70;99.90
46900;DHT22;32647;49.382;7.078;2022-07-23T03:42:43;18.80;99.90
46900;DHT22;32647;49.382;7.078;2022-07-23T03:45:29;18.80;99.90
46900;DHT22;32647;49.382;7.078;2022-07-23T03:48:15;18.60;99.90
46900;DHT22;32647;49.382;7.078;2022-07-23T03:51:01;18.50;99.90
46900;DHT22;32647;49.382;7.078;2022-07-23T03:53:47;18.40;99.90
46900;DHT22;32647;49.382;7.078;2022-07-23T03:56:35;18.50;99.90
46900;DHT22;32647;49.382;7.078;2022-07-23T03:59:21;18.50;99.90
46900;DHT22;32647;49.382;7.078;2022-07-23T04:02:07;18.50;99.90
46900;DHT22;32647;49.382;7.078;2022-07-23T04:04:52;18.50;99.90
46900;DHT22;32647;49.382;7.078;2022-07-23T04:07:38;18.50;99.90
46900;DHT22;32647;49.382;7.078;2022-07-23T04:10:25;18.50;99.90
46900;DHT22;32647;49.382;7.078;2022-07-23T04:13:11;18.50;99.90
46900;DHT22;32647;49.382;7.078;2022-07-23T04:15:58;18.50;99.90
46900;DHT22;32647;49.382;7.078;2022-07-23T04:18:44;18.40;99.90
46900;DHT22;32647;49.382;7.078;2022-07-23T04:21:30;18.50;99.90
46900;DHT22;32647;49.382;7.078;2022-07-23T04:24:16;18.60;99.90
46900;DHT22;32647;49.382;7.078;2022-07-23T04:27:03;18.60;99.90
46900;DHT22;32647;49.382;7.078;2022-07-23T04:29:49;18.60;99.90
46900;DHT22;32647;49.382;7.078;2022-07-23T04:32:35;18.60;99.90
46900;DHT22;32647;49.382;7.078;2022-07-23T04:35:21;18.70;99.90
46900;DHT22;32647;49.382;7.078;2022-07-23T04:38:07;18.60;99.90
46900;DHT22;32647;49.382;7.078;2022-07-23T04:40:53;18.50;99.90
46900;DHT22;32647;49.382;7.078;2022-07-23T04:43:39;18.40;99.90
46900;DHT22;32647;49.382;7.078;2022-07-23T04:46:25;18.40;99.90
46900;DHT22;32647;49.382;7.078;2022-07-23T04:49:11;18.40;99.90
46900;DHT22;32647;49.382;7.078;2022-07-23T04:51:57;18.40;99.90
46900;DHT22;32647;49.382;7.078;2022-07-23T04:54:43;18.50;99.90
46900;DHT22;32647;49.382;7.078;2022-07-23T04:57:30;18.40;99.90
46900;DHT22;32647;49.382;7.078;2022-07-23T05:00:16;18.40;99.90
46900;DHT22;32647;49.382;7.078;2022-07-23T05:03:02;18.50;99.90
46900;DHT22;32647;49.382;7.078;2022-07-23T05:05:48;18.30;99.90
46900;DHT22;32647;49.382;7.078;2022-07-23T05:08:34;18.50;99.90
46900;DHT22;32647;49.382;7.078;2022-07-23T05:11:20;18.50;99.90
46900;DHT22;32647;49.382;7.078;2022-07-23T05:14:06;18.60;99.90
46900;DHT22;32647;49.382;7.078;2022-07-23T05:16:52;18.60;99.90
46900;DHT22;32647;49.382;7.078;2022-07-23T05:19:38;18.60;99.90
46900;DHT22;32647;49.382;7.078;2022-07-23T05:22:24;18.70;99.90
46900;DHT22;32647;49.382;7.078;2022-07-23T05:25:10;18.80;99.90
46900;DHT22;32647;49.382;7.078;2022-07-23T05:27:56;18.80;99.90
46900;DHT22;32647;49.382;7.078;2022-07-23T05:30:42;18.80;99.90
46900;DHT22;32647;49.382;7.078;2022-07-23T05:33:28;18.70;99.90
46900;DHT22;32647;49.382;7.078;2022-07-23T05:36:14;19.00;99.90
46900;DHT22;32647;49.382;7.078;2022-07-23T05:39:00;19.20;99.90
46900;DHT22;32647;49.382;7.078;2022-07-23T05:41:46;19.40;99.90
46900;DHT22;32647;49.382;7.078;2022-07-23T05:44:32;19.50;99.90
46900;DHT22;32647;49.382;7.078;2022-07-23T05:47:18;19.50;99.90
46900;DHT22;32647;49.382;7.078;2022-07-23T05:50:04;19.50;99.90
46900;DHT22;32647;49.382;7.078;2022-07-23T05:52:50;19.60;99.90
46900;DHT22;32647;49.382;7.078;2022-07-23T05:55:36;19.70;99.90
46900;DHT22;32647;49.382;7.078;2022-07-23T05:58:22;19.50;99.90
46900;DHT22;32647;49.382;7.078;2022-07-23T06:01:08;19.50;99.90
46900;DHT22;32647;49.382;7.078;2022-07-23T06:03:54;19.40;99.90
46900;DHT22;32647;49.382;7.078;2022-07-23T06:06:40;19.50;99.90
46900;DHT22;32647;49.382;7.078;2022-07-23T06:09:26;19.70;99.90
46900;DHT22;32647;49.382;7.078;2022-07-23T06:12:16;19.90;99.90
46900;DHT22;32647;49.382;7.078;2022-07-23T06:15:03;20.00;99.90
46900;DHT22;32647;49.382;7.078;2022-07-23T06:17:49;20.10;99.90
46900;DHT22;32647;49.382;7.078;2022-07-23T06:20:35;20.30;99.90
46900;DHT22;32647;49.382;7.078;2022-07-23T06:23:21;20.40;99.90
46900;DHT22;32647;49.382;7.078;2022-07-23T06:26:07;20.50;99.90
46900;DHT22;32647;49.382;7.078;2022-07-23T06:28:53;20.60;99.90
46900;DHT22;32647;49.382;7.078;2022-07-23T06:31:39;20.60;99.90
46900;DHT22;32647;49.382;7.078;2022-07-23T06:34:25;20.50;99.90
46900;DHT22;32647;49.382;7.078;2022-07-23T06:37:11;20.70;99.90
46900;DHT22;32647;49.382;7.078;2022-07-23T06:39:57;20.60;99.90
46900;DHT22;32647;49.382;7.078;2022-07-23T06:42:42;20.70;99.90
46900;DHT22;32647;49.382;7.078;2022-07-23T06:45:29;20.50;99.90
46900;DHT22;32647;49.382;7.078;2022-07-23T06:48:15;20.60;99.90
46900;DHT22;32647;49.382;7.078;2022-07-23T06:51:01;20.80;99.90
46900;DHT22;32647;49.382;7.078;2022-07-23T06:53:47;20.90;99.90
46900;DHT22;32647;49.382;7.078;2022-07-23T06:56:33;20.80;99.90
46900;DHT22;32647;49.382;7.078;2022-07-23T06:59:19;20.80;99.90
46900;DHT22;32647;49.382;7.078;2022-07-23T07:02:06;21.00;99.90
46900;DHT22;32647;49.382;7.078;2022-07-23T07:04:52;21.10;99.90
46900;DHT22;32647;49.382;7.078;2022-07-23T07:07:38;21.40;99.90
46900;DHT22;32647;49.382;7.078;2022-07-23T07:10:24;21.50;99.90
46900;DHT22;32647;49.382;7.078;2022-07-23T07:13:10;21.50;98.20
46900;DHT22;32647;49.382;7.078;2022-07-23T07:15:57;21.40;99.90
46900;DHT22;32647;49.382;7.078;2022-07-23T07:18:43;21.30;99.90
46900;DHT22;32647;49.382;7.078;2022-07-23T07:21:29;21.30;99.90
46900;DHT22;32647;49.382;7.078;2022-07-23T07:24:15;21.60;99.20
46900;DHT22;32647;49.382;7.078;2022-07-23T07:27:01;21.60;97.20
46900;DHT22;32647;49.382;7.078;2022-07-23T07:29:47;21.50;96.10
46900;DHT22;32647;49.382;7.078;2022-07-23T07:32:33;21.10;99.90
46900;DHT22;32647;49.382;7.078;2022-07-23T07:35:19;21.00;99.90
46900;DHT22;32647;49.382;7.078;2022-07-23T07:38:05;21.20;98.70
46900;DHT22;32647;49.382;7.078;2022-07-23T07:40:51;21.30;99.90
46900;DHT22;32647;49.382;7.078;2022-07-23T07:43:37;21.50;99.20
46900;DHT22;32647;49.382;7.078;2022-07-23T07:46:23;21.70;94.90
46900;DHT22;32647;49.382;7.078;2022-07-23T07:49:09;21.50;93.20
46900;DHT22;32647;49.382;7.078;2022-07-23T07:51:55;21.70;96.80
46900;DHT22;32647;49.382;7.078;2022-07-23T07:54:41;22.00;91.10
46900;DHT22;32647;49.382;7.078;2022-07-23T07:57:28;21.90;82.50
46900;DHT22;32647;49.382;7.078;2022-07-23T08:00:14;22.00;91.40
46900;DHT22;32647;49.382;7.078;2022-07-23T08:03:00;21.80;93.80
46900;DHT22;32647;49.382;7.078;2022-07-23T08:05:46;22.20;90.80
46900;DHT22;32647;49.382;7.078;2022-07-23T08:08:32;22.40;79.10
46900;DHT22;32647;49.382;7.078;2022-07-23T08:11:18;22.80;86.60
46900;DHT22;32647;49.382;7.078;2022-07-23T08:14:04;22.90;41.90
46900;DHT22;32647;49.382;7.078;2022-07-23T08:16:50;23.30;99.90
46900;DHT22;32647;49.382;7.078;2022-07-23T08:19:36;23.50;1.00
46900;DHT22;32647;49.382;7.078;2022-07-23T08:22:23;23.60;1.00
46900;DHT22;32647;49.382;7.078;2022-07-23T08:25:09;23.30;99.90
46900;DHT22;32647;49.382;7.078;2022-07-23T08:27:57;23.40;99.90
46900;DHT22;32647;49.382;7.078;2022-07-23T08:30:45;23.60;1.00
46900;DHT22;32647;49.382;7.078;2022-07-23T08:33:31;23.50;99.90
46900;DHT22;32647;49.382;7.078;2022-07-23T08:36:17;23.50;99.90
46900;DHT22;32647;49.382;7.078;2022-07-23T08:39:03;23.50;99.90
46900;DHT22;32647;49.382;7.078;2022-07-23T08:41:50;23.80;99.90
46900;DHT22;32647;49.382;7.078;2022-07-23T08:44:36;24.00;99.90
46900;DHT22;32647;49.382;7.078;2022-07-23T08:47:23;23.80;99.90
46900;DHT22;32647;49.382;7.078;2022-07-23T08:50:10;24.30;99.90
46900;DHT22;32647;49.382;7.078;2022-07-23T08:52:56;24.10;1.00
46900;DHT22;32647;49.382;7.078;2022-07-23T08:55:49;24.50;99.90
46900;DHT22;32647;49.382;7.078;2022-07-23T08:58:36;24.60;99.90
46900;DHT22;32647;49.382;7.078;2022-07-23T09:01:22;25.00;1.00
46900;DHT22;32647;49.382;7.078;2022-07-23T09:04:08;24.40;99.90
46900;DHT22;32647;49.382;7.078;2022-07-23T09:06:54;24.20;99.90
46900;DHT22;32647;49.382;7.078;2022-07-23T09:09:41;24.50;99.90
46900;DHT22;32647;49.382;7.078;2022-07-23T09:12:27;24.40;99.90
46900;DHT22;32647;49.382;7.078;2022-07-23T09:15:13;24.30;99.90
46900;DHT22;32647;49.382;7.078;2022-07-23T09:17:59;24.20;99.90
46900;DHT22;32647;49.382;7.078;2022-07-23T09:20:45;24.60;99.90
46900;DHT22;32647;49.382;7.078;2022-07-23T09:23:41;25.00;30.50
46900;DHT22;32647;49.382;7.078;2022-07-23T09:26:36;25.50;1.00
46900;DHT22;32647;49.382;7.078;2022-07-23T09:29:24;25.40;1.00
46900;DHT22;32647;49.382;7.078;2022-07-23T09:32:13;25.10;1.00
46900;DHT22;32647;49.382;7.078;2022-07-23T09:34:59;25.40;1.00
46900;DHT22;32647;49.382;7.078;2022-07-23T09:38:01;26.00;1.00
46900;DHT22;32647;49.382;7.078;2022-07-23T09:41:08;25.90;1.00
46900;DHT22;32647;49.382;7.078;2022-07-23T09:43:55;25.60;1.00
46900;DHT22;32647;49.382;7.078;2022-07-23T09:46:43;25.90;1.00
46900;DHT22;32647;49.382;7.078;2022-07-23T09:49:29;26.80;1.00
46900;DHT22;32647;49.382;7.078;2022-07-23T09:52:29;27.20;1.00
46900;DHT22;32647;49.382;7.078;2022-07-23T09:55:17;26.90;1.00
46900;DHT22;32647;49.382;7.078;2022-07-23T09:58:05;26.60;1.00
46900;DHT22;32647;49.382;7.078;2022-07-23T10:00:53;26.60;99.90
46900;DHT22;32647;49.382;7.078;2022-07-23T10:03:41;26.70;1.00
46900;DHT22;32647;49.382;7.078;2022-07-23T10:06:28;26.70;99.90
46900;DHT22;32647;49.382;7.078;2022-07-23T10:09:16;27.00;1.00
46900;DHT22;32647;49.382;7.078;2022-07-23T10:12:14;26.60;99.90
46900;DHT22;32647;49.382;7.078;2022-07-23T10:15:18;26.50;99.90
46900;DHT22;32647;49.382;7.078;2022-07-23T10:18:05;25.70;99.90
46900;DHT22;32647;49.382;7.078;2022-07-23T10:20:51;25.80;99.90
46900;DHT22;32647;49.382;7.078;2022-07-23T10:23:45;26.30;99.90
46900;DHT22;32647;49.382;7.078;2022-07-23T10:26:45;26.30;99.90
46900;DHT22;32647;49.382;7.078;2022-07-23T10:29:46;26.40;99.90
46900;DHT22;32647;49.382;7.078;2022-07-23T10:38:22;26.20;99.90
46900;DHT22;32647;49.382;7.078;2022-07-23T10:41:10;27.00;99.90
46900;DHT22;32647;49.382;7.078;2022-07-23T10:47:03;26.50;99.90
46900;DHT22;32647;49.382;7.078;2022-07-23T10:50:25;26.60;99.90
46900;DHT22;32647;49.382;7.078;2022-07-23T10:53:17;26.00;99.90
46900;DHT22;32647;49.382;7.078;2022-07-23T10:56:03;25.60;99.90
46900;DHT22;32647;49.382;7.078;2022-07-23T10:58:50;25.70;99.90
46900;DHT22;32647;49.382;7.078;2022-07-23T11:01:40;26.10;99.90
46900;DHT22;32647;49.382;7.078;2022-07-23T11:04:48;26.60;99.90
46900;DHT22;32647;49.382;7.078;2022-07-23T11:07:36;26.30;99.90
46900;DHT22;32647;49.382;7.078;2022-07-23T11:13:40;27.50;99.90
46900;DHT22;32647;49.382;7.078;2022-07-23T11:16:26;27.00;99.90
46900;DHT22;32647;49.382;7.078;2022-07-23T11:19:12;26.70;99.90
46900;DHT22;32647;49.382;7.078;2022-07-23T11:21:58;25.80;99.90
46900;DHT22;32647;49.382;7.078;2022-07-23T11:24:51;26.00;99.90
46900;DHT22;32647;49.382;7.078;2022-07-23T11:27:41;26.00;99.90
46900;DHT22;32647;49.382;7.078;2022-07-23T11:36:01;27.30;99.90
46900;DHT22;32647;49.382;7.078;2022-07-23T11:38:50;27.70;99.90
46900;DHT22;32647;49.382;7.078;2022-07-23T11:41:44;27.90;99.90
46900;DHT22;32647;49.382;7.078;2022-07-23T11:44:33;28.20;99.90
46900;DHT22;32647;49.382;7.078;2022-07-23T11:47:26;27.80;99.90
46900;DHT22;32647;49.382;7.078;2022-07-23T11:50:12;27.80;99.90
46900;DHT22;32647;49.382;7.078;2022-07-23T11:52:58;27.60;99.90
46900;DHT22;32647;49.382;7.078;2022-07-23T11:55:45;27.30;99.90
46900;DHT22;32647;49.382;7.078;2022-07-23T11:58:31;27.30;99.90
46900;DHT22;32647;49.382;7.078;2022-07-23T12:01:17;27.70;99.90
46900;DHT22;32647;49.382;7.078;2022-07-23T12:04:03;28.10;99.90
46900;DHT22;32647;49.382;7.078;2022-07-23T12:06:49;27.80;99.90
46900;DHT22;32647;49.382;7.078;2022-07-23T12:09:35;26.50;99.90
46900;DHT22;32647;49.382;7.078;2022-07-23T12:12:22;26.60;99.90
46900;DHT22;32647;49.382;7.078;2022-07-23T12:15:10;27.20;99.90
46900;DHT22;32647;49.382;7.078;2022-07-23T12:17:56;27.30;99.90
46900;DHT22;32647;49.382;7.078;2022-07-23T12:20:48;26.40;99.90
46900;DHT22;32647;49.382;7.078;2022-07-23T12:23:34;26.10;99.90
46900;DHT22;32647;49.382;7.078;2022-07-23T12:26:23;26.00;99.90
46900;DHT22;32647;49.382;7.078;2022-07-23T12:29:09;25.90;99.90
46900;DHT22;32647;49.382;7.078;2022-07-23T12:31:55;25.80;99.90
46900;DHT22;32647;49.382;7.078;2022-07-23T12:34:42;26.20;99.90
46900;DHT22;32647;49.382;7.078;2022-07-23T12:37:37;26.40;99.90
46900;DHT22;32647;49.382;7.078;2022-07-23T12:40:26;26.60;99.90
46900;DHT22;32647;49.382;7.078;2022-07-23T12:46:06;28.80;99.90
46900;DHT22;32647;49.382;7.078;2022-07-23T12:48:53;29.30;99.90
46900;DHT22;32647;49.382;7.078;2022-07-23T12:51:40;28.80;99.90
46900;DHT22;32647;49.382;7.078;2022-07-23T12:54:29;28.30;99.90
46900;DHT22;32647;49.382;7.078;2022-07-23T12:57:15;27.70;99.90
46900;DHT22;32647;49.382;7.078;2022-07-23T13:00:08;28.40;99.90
46900;DHT22;32647;49.382;7.078;2022-07-23T13:02:55;28.70;99.90
46900;DHT22;32647;49.382;7.078;2022-07-23T13:05:41;29.60;99.90
46900;DHT22;32647;49.382;7.078;2022-07-23T13:08:30;29.70;99.90
46900;DHT22;32647;49.382;7.078;2022-07-23T13:11:16;30.00;99.90
46900;DHT22;32647;49.382;7.078;2022-07-23T13:14:02;30.30;99.90
46900;DHT22;32647;49.382;7.078;2022-07-23T13:16:49;31.10;99.90
46900;DHT22;32647;49.382;7.078;2022-07-23T13:19:36;30.60;99.90
46900;DHT22;32647;49.382;7.078;2022-07-23T13:22:22;29.60;99.90
46900;DHT22;32647;49.382;7.078;2022-07-23T13:25:08;29.80;99.90
46900;DHT22;32647;49.382;7.078;2022-07-23T13:27:54;29.80;99.90
46900;DHT22;32647;49.382;7.078;2022-07-23T13:30:41;29.70;99.90
46900;DHT22;32647;49.382;7.078;2022-07-23T13:33:27;30.20;99.90
46900;DHT22;32647;49.382;7.078;2022-07-23T13:36:13;30.50;99.90
46900;DHT22;32647;49.382;7.078;2022-07-23T13:38:59;31.40;99.90
46900;DHT22;32647;49.382;7.078;2022-07-23T13:41:45;31.30;99.90
46900;DHT22;32647;49.382;7.078;2022-07-23T13:44:32;30.80;99.90
46900;DHT22;32647;49.382;7.078;2022-07-23T13:49:45;30.90;99.90
46900;DHT22;32647;49.382;7.078;2022-07-23T13:52:31;31.80;99.90
46900;DHT22;32647;49.382;7.078;2022-07-23T13:55:19;31.60;99.90
46900;DHT22;32647;49.382;7.078;2022-07-23T13:58:06;31.30;99.90
46900;DHT22;32647;49.382;7.078;2022-07-23T14:00:53;29.50;99.90
46900;DHT22;32647;49.382;7.078;2022-07-23T14:03:41;28.60;99.90
46900;DHT22;32647;49.382;7.078;2022-07-23T14:06:27;29.60;99.90
46900;DHT22;32647;49.382;7.078;2022-07-23T14:09:13;29.80;99.90
46900;DHT22;32647;49.382;7.078;2022-07-23T14:11:59;29.00;99.90
46900;DHT22;32647;49.382;7.078;2022-07-23T14:14:45;29.10;99.90
46900;DHT22;32647;49.382;7.078;2022-07-23T14:17:31;29.70;99.90
46900;DHT22;32647;49.382;7.078;2022-07-23T14:20:18;30.30;99.90
46900;DHT22;32647;49.382;7.078;2022-07-23T14:23:05;30.80;99.90
46900;DHT22;32647;49.382;7.078;2022-07-23T14:25:51;30.90;99.90
46900;DHT22;32647;49.382;7.078;2022-07-23T14:28:37;29.90;99.90
46900;DHT22;32647;49.382;7.078;2022-07-23T14:31:23;29.80;99.90
46900;DHT22;32647;49.382;7.078;2022-07-23T14:34:09;29.30;99.90
46900;DHT22;32647;49.382;7.078;2022-07-23T14:36:58;29.80;99.90
46900;DHT22;32647;49.382;7.078;2022-07-23T14:39:45;30.30;99.90
46900;DHT22;32647;49.382;7.078;2022-07-23T14:42:31;30.80;99.90
46900;DHT22;32647;49.382;7.078;2022-07-23T14:45:17;30.90;99.90
46900;DHT22;32647;49.382;7.078;2022-07-23T14:48:03;29.40;99.90
46900;DHT22;32647;49.382;7.078;2022-07-23T14:50:49;29.00;99.90
46900;DHT22;32647;49.382;7.078;2022-07-23T14:53:35;28.90;99.90
46900;DHT22;32647;49.382;7.078;2022-07-23T14:56:21;28.40;99.90
46900;DHT22;32647;49.382;7.078;2022-07-23T14:59:08;28.50;99.90
46900;DHT22;32647;49.382;7.078;2022-07-23T15:01:54;28.10;99.90
46900;DHT22;32647;49.382;7.078;2022-07-23T15:04:40;28.30;99.90
46900;DHT22;32647;49.382;7.078;2022-07-23T15:07:26;28.10;99.90
46900;DHT22;32647;49.382;7.078;2022-07-23T15:10:13;28.20;99.90
46900;DHT22;32647;49.382;7.078;2022-07-23T15:12:59;29.10;99.90
46900;DHT22;32647;49.382;7.078;2022-07-23T15:15:45;29.60;99.90
46900;DHT22;32647;49.382;7.078;2022-07-23T15:18:31;30.20;99.90
46900;DHT22;32647;49.382;7.078;2022-07-23T15:21:18;29.90;99.90
46900;DHT22;32647;49.382;7.078;2022-07-23T15:24:04;29.90;99.90
46900;DHT22;32647;49.382;7.078;2022-07-23T15:26:50;30.20;99.90
46900;DHT22;32647;49.382;7.078;2022-07-23T15:29:37;30.10;99.90
46900;DHT22;32647;49.382;7.078;2022-07-23T15:32:23;29.90;99.90
46900;DHT22;32647;49.382;7.078;2022-07-23T15:35:12;29.30;99.90
46900;DHT22;32647;49.382;7.078;2022-07-23T15:37:58;29.10;99.90
46900;DHT22;32647;49.382;7.078;2022-07-23T15:40:44;29.30;99.90
46900;DHT22;32647;49.382;7.078;2022-07-23T15:43:30;30.00;99.90
46900;DHT22;32647;49.382;7.078;2022-07-23T15:46:17;30.10;99.90
46900;DHT22;32647;49.382;7.078;2022-07-23T15:49:04;30.00;99.90
46900;DHT22;32647;49.382;7.078;2022-07-23T15:51:50;30.20;99.90
46900;DHT22;32647;49.382;7.078;2022-07-23T15:54:37;30.30;99.90
46900;DHT22;32647;49.382;7.078;2022-07-23T15:57:24;30.40;99.90
46900;DHT22;32647;49.382;7.078;2022-07-23T16:00:10;30.40;99.90
46900;DHT22;32647;49.382;7.078;2022-07-23T16:02:56;29.50;99.90
46900;DHT22;32647;49.382;7.078;2022-07-23T16:05:42;28.90;99.90
46900;DHT22;32647;49.382;7.078;2022-07-23T16:08:28;28.80;99.90
46900;DHT22;32647;49.382;7.078;2022-07-23T16:11:14;29.40;99.90
46900;DHT22;32647;49.382;7.078;2022-07-23T16:14:00;29.80;99.90
46900;DHT22;32647;49.382;7.078;2022-07-23T16:16:46;29.20;99.90
46900;DHT22;32647;49.382;7.078;2022-07-23T16:19:33;29.60;99.90
46900;DHT22;32647;49.382;7.078;2022-07-23T16:22:19;29.70;99.90
46900;DHT22;32647;49.382;7.078;2022-07-23T16:25:05;29.00;99.90
46900;DHT22;32647;49.382;7.078;2022-07-23T16:27:52;29.10;99.90
46900;DHT22;32647;49.382;7.078;2022-07-23T16:30:38;29.30;99.90
46900;DHT22;32647;49.382;7.078;2022-07-23T16:33:25;29.30;99.90
46900;DHT22;32647;49.382;7.078;2022-07-23T16:36:11;29.50;99.90
46900;DHT22;32647;49.382;7.078;2022-07-23T16:38:57;29.60;99.90
46900;DHT22;32647;49.382;7.078;2022-07-23T16:41:44;29.50;99.90
46900;DHT22;32647;49.382;7.078;2022-07-23T16:44:31;29.40;99.90
46900;DHT22;32647;49.382;7.078;2022-07-23T16:47:17;28.70;99.90
46900;DHT22;32647;49.382;7.078;2022-07-23T16:50:06;28.30;99.90
46900;DHT22;32647;49.382;7.078;2022-07-23T16:52:52;28.90;99.90
46900;DHT22;32647;49.382;7.078;2022-07-23T16:55:38;29.00;99.90
46900;DHT22;32647;49.382;7.078;2022-07-23T16:58:24;29.00;99.90
46900;DHT22;32647;49.382;7.078;2022-07-23T17:01:10;29.00;99.90
46900;DHT22;32647;49.382;7.078;2022-07-23T17:03:56;28.90;99.90
46900;DHT22;32647;49.382;7.078;2022-07-23T17:06:42;28.80;99.90
46900;DHT22;32647;49.382;7.078;2022-07-23T17:09:29;28.80;99.90
46900;DHT22;32647;49.382;7.078;2022-07-23T17:12:15;28.80;99.90
46900;DHT22;32647;49.382;7.078;2022-07-23T17:15:01;28.00;99.90
46900;DHT22;32647;49.382;7.078;2022-07-23T17:17:47;28.00;99.90
46900;DHT22;32647;49.382;7.078;2022-07-23T17:20:33;27.70;99.90
46900;DHT22;32647;49.382;7.078;2022-07-23T17:23:20;28.00;99.90
46900;DHT22;32647;49.382;7.078;2022-07-23T17:26:06;28.20;99.90
46900;DHT22;32647;49.382;7.078;2022-07-23T17:28:52;28.70;99.90
46900;DHT22;32647;49.382;7.078;2022-07-23T17:31:38;29.50;99.90
46900;DHT22;32647;49.382;7.078;2022-07-23T17:34:24;29.90;99.90
46900;DHT22;32647;49.382;7.078;2022-07-23T17:37:10;28.80;99.90
46900;DHT22;32647;49.382;7.078;2022-07-23T17:39:56;28.10;99.90
46900;DHT22;32647;49.382;7.078;2022-07-23T17:42:43;27.70;99.90
46900;DHT22;32647;49.382;7.078;2022-07-23T17:45:29;27.60;99.90
46900;DHT22;32647;49.382;7.078;2022-07-23T17:48:15;27.60;99.90
46900;DHT22;32647;49.382;7.078;2022-07-23T17:51:01;27.60;99.90
46900;DHT22;32647;49.382;7.078;2022-07-23T17:53:48;28.10;99.90
46900;DHT22;32647;49.382;7.078;2022-07-23T17:56:34;28.30;99.90
46900;DHT22;32647;49.382;7.078;2022-07-23T17:59:20;28.80;99.90